9ACTJ LDZA-LDZD
Flight info
| Callsign | 9ACTJ |
|---|---|
| Flight time | 0h 29m |
| Altitude | 17000 |
| Route | NIVES1W/04 NIVES PALEZ NUPSO BEPTU RODGO LEVPA |
| Aircraft | A320/M-S/L |
Departure
| Time | 2026-04-24 16:39 |
|---|---|
| Airport | Zagreb Franjo Tuđman International Airport (LDZA) |
Arrival
| Time | 2026-04-24 17:09 |
|---|---|
| Airport | Zadar Airport (LDZD) |
| Time | Latitude | Longitude | Altitude | Speed | Heading |
|---|---|---|---|---|---|
| 2026-04-24 16:39 | 45.72640 | 16.30211 | 6976 ft | 292 kts | 117° |
| 2026-04-24 16:39 | 45.71503 | 16.32634 | 7739 ft | 294 kts | 123° |
| 2026-04-24 16:39 | 45.70149 | 16.34838 | 8958 ft | 297 kts | 131° |
| 2026-04-24 16:40 | 45.69102 | 16.36117 | 9852 ft | 303 kts | 146° |
| 2026-04-24 16:40 | 45.66304 | 16.37018 | 11083 ft | 330 kts | 188° |
| 2026-04-24 16:40 | 45.64102 | 16.35835 | 11848 ft | 348 kts | 217° |
| 2026-04-24 16:40 | 45.62355 | 16.33396 | 12650 ft | 362 kts | 232° |
| 2026-04-24 16:41 | 45.60730 | 16.30527 | 13472 ft | 378 kts | 234° |
| 2026-04-24 16:41 | 45.59103 | 16.27512 | 14242 ft | 393 kts | 234° |
| 2026-04-24 16:41 | 45.57290 | 16.24492 | 14978 ft | 408 kts | 229° |
| 2026-04-24 16:41 | 45.55340 | 16.21471 | 15768 ft | 418 kts | 228° |
| 2026-04-24 16:42 | 45.53348 | 16.18439 | 16363 ft | 420 kts | 227° |
| 2026-04-24 16:42 | 45.51425 | 16.15525 | 16713 ft | 386 kts | 227° |
| 2026-04-24 16:42 | 45.49602 | 16.12762 | 16893 ft | 383 kts | 227° |
| 2026-04-24 16:42 | 45.47763 | 16.09977 | 16961 ft | 387 kts | 227° |
| 2026-04-24 16:43 | 45.45916 | 16.07182 | 16991 ft | 386 kts | 227° |
| 2026-04-24 16:43 | 45.44071 | 16.04394 | 17000 ft | 387 kts | 227° |
| 2026-04-24 16:43 | 45.42229 | 16.01611 | 17015 ft | 387 kts | 227° |
| 2026-04-24 16:43 | 45.40385 | 15.98828 | 17016 ft | 387 kts | 227° |
| 2026-04-24 16:44 | 45.38540 | 15.96046 | 17007 ft | 387 kts | 227° |
| 2026-04-24 16:44 | 45.36691 | 15.93262 | 17013 ft | 387 kts | 227° |
| 2026-04-24 16:44 | 45.34846 | 15.90485 | 17019 ft | 386 kts | 227° |
| 2026-04-24 16:44 | 45.32928 | 15.87810 | 17013 ft | 387 kts | 216° |
| 2026-04-24 16:45 | 45.30508 | 15.86211 | 17031 ft | 386 kts | 191° |
| 2026-04-24 16:45 | 45.27856 | 15.86161 | 17036 ft | 382 kts | 165° |
| 2026-04-24 16:45 | 45.25448 | 15.87620 | 17038 ft | 374 kts | 144° |
| 2026-04-24 16:45 | 45.23109 | 15.89234 | 17023 ft | 380 kts | 164° |
| 2026-04-24 16:46 | 45.20464 | 15.89331 | 17036 ft | 386 kts | 190° |
| 2026-04-24 16:46 | 45.17922 | 15.88084 | 17031 ft | 388 kts | 201° |
| 2026-04-24 16:46 | 45.15418 | 15.86674 | 17024 ft | 387 kts | 201° |
| 2026-04-24 16:46 | 45.12926 | 15.85232 | 17016 ft | 387 kts | 202° |
| 2026-04-24 16:47 | 45.10435 | 15.83780 | 17019 ft | 388 kts | 201° |
| 2026-04-24 16:47 | 45.07940 | 15.82330 | 17016 ft | 388 kts | 201° |
| 2026-04-24 16:47 | 45.05475 | 15.80902 | 17021 ft | 387 kts | 201° |
| 2026-04-24 16:47 | 45.02977 | 15.79452 | 17010 ft | 388 kts | 201° |
| 2026-04-24 16:48 | 45.00473 | 15.78002 | 17016 ft | 388 kts | 201° |
| 2026-04-24 16:48 | 44.97984 | 15.76560 | 17022 ft | 381 kts | 201° |
| 2026-04-24 16:48 | 44.95611 | 15.75186 | 17020 ft | 356 kts | 201° |
| 2026-04-24 16:48 | 44.93392 | 15.73905 | 17017 ft | 335 kts | 201° |
| 2026-04-24 16:49 | 44.91251 | 15.72668 | 17021 ft | 333 kts | 201° |
| 2026-04-24 16:49 | 44.89098 | 15.71427 | 17029 ft | 335 kts | 201° |
| 2026-04-24 16:49 | 44.86945 | 15.70185 | 17032 ft | 333 kts | 201° |
| 2026-04-24 16:49 | 44.84792 | 15.68945 | 17035 ft | 334 kts | 201° |
| 2026-04-24 16:50 | 44.83366 | 15.68124 | 17036 ft | 335 kts | 201° |
| 2026-04-24 16:50 | 44.80488 | 15.66469 | 17035 ft | 334 kts | 201° |
| 2026-04-24 16:50 | 44.78331 | 15.65228 | 17033 ft | 336 kts | 201° |
| 2026-04-24 16:50 | 44.76173 | 15.63989 | 17032 ft | 335 kts | 201° |
| 2026-04-24 16:51 | 44.74017 | 15.62752 | 17032 ft | 334 kts | 201° |
| 2026-04-24 16:51 | 44.71866 | 15.61518 | 17037 ft | 335 kts | 201° |
| 2026-04-24 16:51 | 44.69710 | 15.60282 | 17037 ft | 335 kts | 201° |
| 2026-04-24 16:51 | 44.67556 | 15.59048 | 17038 ft | 333 kts | 200° |
| 2026-04-24 16:52 | 44.66134 | 15.58236 | 17040 ft | 333 kts | 200° |
| 2026-04-24 16:52 | 44.63254 | 15.56592 | 17039 ft | 334 kts | 200° |
| 2026-04-24 16:52 | 44.61095 | 15.55382 | 17025 ft | 334 kts | 195° |
| 2026-04-24 16:52 | 44.58832 | 15.54824 | 17050 ft | 328 kts | 175° |
| 2026-04-24 16:53 | 44.56598 | 15.55272 | 16854 ft | 322 kts | 162° |
| 2026-04-24 16:53 | 44.54459 | 15.56163 | 16295 ft | 320 kts | 157° |
| 2026-04-24 16:53 | 44.52374 | 15.57228 | 15730 ft | 318 kts | 154° |
| 2026-04-24 16:53 | 44.50383 | 15.58522 | 15176 ft | 314 kts | 149° |
| 2026-04-24 16:54 | 44.48450 | 15.59897 | 14645 ft | 313 kts | 148° |
| 2026-04-24 16:54 | 44.46516 | 15.61296 | 14115 ft | 311 kts | 148° |
| 2026-04-24 16:54 | 44.44602 | 15.62693 | 13575 ft | 310 kts | 148° |
| 2026-04-24 16:54 | 44.42697 | 15.64081 | 13020 ft | 308 kts | 148° |
| 2026-04-24 16:55 | 44.40801 | 15.65457 | 12484 ft | 306 kts | 148° |
| 2026-04-24 16:55 | 44.38917 | 15.66826 | 11971 ft | 304 kts | 148° |
| 2026-04-24 16:55 | 44.37049 | 15.68180 | 11500 ft | 305 kts | 148° |
| 2026-04-24 16:55 | 44.35189 | 15.69527 | 11240 ft | 301 kts | 148° |
| 2026-04-24 16:56 | 44.33314 | 15.70881 | 11136 ft | 299 kts | 148° |
| 2026-04-24 16:56 | 44.31467 | 15.72219 | 11048 ft | 300 kts | 148° |
| 2026-04-24 16:56 | 44.29618 | 15.73555 | 11026 ft | 299 kts | 148° |
| 2026-04-24 16:56 | 44.27772 | 15.74889 | 11012 ft | 299 kts | 148° |
| 2026-04-24 16:57 | 44.25925 | 15.76221 | 10982 ft | 298 kts | 148° |
| 2026-04-24 16:57 | 44.24107 | 15.77533 | 10997 ft | 299 kts | 148° |
| 2026-04-24 16:57 | 44.22263 | 15.78860 | 10965 ft | 297 kts | 148° |
| 2026-04-24 16:57 | 44.20422 | 15.80186 | 10931 ft | 299 kts | 148° |
| 2026-04-24 16:58 | 44.18593 | 15.81505 | 10626 ft | 292 kts | 148° |
| 2026-04-24 16:58 | 44.16804 | 15.82787 | 10459 ft | 279 kts | 149° |
| 2026-04-24 16:58 | 44.14989 | 15.83549 | 10296 ft | 272 kts | 178° |
| 2026-04-24 16:58 | 44.13158 | 15.83114 | 10057 ft | 267 kts | 204° |
| 2026-04-24 16:59 | 44.11557 | 15.81886 | 9667 ft | 266 kts | 216° |
| 2026-04-24 16:59 | 44.09909 | 15.80755 | 9266 ft | 265 kts | 197° |
| 2026-04-24 16:59 | 44.06398 | 15.79394 | 8560 ft | 260 kts | 195° |
| 2026-04-24 17:00 | 44.04719 | 15.78508 | 8171 ft | 258 kts | 217° |
| 2026-04-24 17:00 | 44.03325 | 15.74353 | 7440 ft | 240 kts | 268° |
| 2026-04-24 17:00 | 44.03046 | 15.72072 | 7089 ft | 240 kts | 257° |
| 2026-04-24 17:01 | 44.01411 | 15.68190 | 5912 ft | 239 kts | 232° |
| 2026-04-24 17:01 | 44.00320 | 15.66510 | 5766 ft | 229 kts | 229° |
| 2026-04-24 17:02 | 43.98148 | 15.63377 | 5223 ft | 223 kts | 228° |
| 2026-04-24 17:02 | 43.97065 | 15.61845 | 4900 ft | 222 kts | 228° |
| 2026-04-24 17:02 | 43.95994 | 15.60308 | 4559 ft | 221 kts | 228° |
| 2026-04-24 17:02 | 43.94987 | 15.58717 | 4186 ft | 218 kts | 249° |
| 2026-04-24 17:03 | 43.95504 | 15.55446 | 3339 ft | 174 kts | 320° |
| 2026-04-24 17:03 | 43.96346 | 15.54249 | 3146 ft | 172 kts | 317° |
| 2026-04-24 17:03 | 43.97184 | 15.53070 | 3072 ft | 172 kts | 319° |
| 2026-04-24 17:04 | 43.98049 | 15.51920 | 2798 ft | 172 kts | 319° |
| 2026-04-24 17:04 | 43.99522 | 15.49951 | 2566 ft | 137 kts | 319° |
| 2026-04-24 17:04 | 44.00206 | 15.49065 | 2584 ft | 136 kts | 318° |
| 2026-04-24 17:05 | 44.00875 | 15.48135 | 2607 ft | 137 kts | 317° |
| 2026-04-24 17:05 | 44.01548 | 15.47201 | 2557 ft | 137 kts | 317° |
| 2026-04-24 17:05 | 44.02880 | 15.45406 | 2125 ft | 130 kts | 317° |
| 2026-04-24 17:06 | 44.03521 | 15.44544 | 1949 ft | 129 kts | 316° |
| 2026-04-24 17:06 | 44.04803 | 15.42804 | 1638 ft | 130 kts | 317° |
| 2026-04-24 17:06 | 44.05445 | 15.41956 | 1454 ft | 126 kts | 316° |
| 2026-04-24 17:07 | 44.05866 | 15.41387 | 1317 ft | 126 kts | 315° |
| 2026-04-24 17:07 | 44.06708 | 15.40251 | 1132 ft | 132 kts | 315° |
| 2026-04-24 17:07 | 44.07362 | 15.39360 | 994 ft | 135 kts | 314° |
| 2026-04-24 17:09 | 44.11117 | 15.34279 | 256 ft | 22 kts | 317° |
| 2026-04-24 17:09 | 44.11108 | 15.34156 | 257 ft | 6 kts | 228° |
| 2026-04-24 17:10 | 44.11075 | 15.34108 | 257 ft | 8 kts | 225° |
| 2026-04-24 17:10 | 44.10977 | 15.34062 | 257 ft | 7 kts | 135° |
| 2026-04-24 17:11 | 44.10720 | 15.34412 | 260 ft | 31 kts | 136° |
| 2026-04-24 17:12 | 44.10127 | 15.35136 | 265 ft | 7 kts | 210° |